Time;durP1;ratioP1;P1;durP2;ratioP2;P2;SDS_P1;SDS_P2;PMS_P1;PMS_P2;Temp;Humidity;BMP_temperature;BMP_pressure;BME280_temperature;BME280_humidity;BME280_pressure;Samples;Min_cycle;Max_cycle;Signal;HPM_P1;HPM_P2
2024/03/20 00:01:55;;;;;;;7.43;2.83;;;;;;;0.64;52.76;94099.78;5004956;28;20030;-82
2024/03/20 00:04:21;;;;;;;7.55;2.83;;;;;;;0.65;53.03;94094.28;5004737;28;20053;-83
2024/03/20 00:06:46;;;;;;;6.47;2.80;;;;;;;0.64;53.08;94099.78;5004737;28;20034;-83
2024/03/20 00:09:13;;;;;;;7.45;2.75;;;;;;;0.51;53.03;94093.06;5019523;28;20026;-81
2024/03/20 00:11:38;;;;;;;7.47;2.75;;;;;;;0.56;53.00;94096.53;5004506;28;20038;-82
2024/03/20 00:14:07;;;;;;;7.20;2.80;;;;;;;0.60;53.43;94102.88;5004427;28;20194;-83
2024/03/20 00:16:37;;;;;;;5.47;2.72;;;;;;;0.63;53.71;94095.56;5004219;28;20210;-82
2024/03/20 00:19:03;;;;;;;5.72;3.13;;;;;;;0.59;53.33;94105.75;5003966;28;20202;-82
2024/03/20 00:21:30;;;;;;;5.35;2.70;;;;;;;0.59;53.14;94100.50;5003936;28;20030;-83
2024/03/20 00:23:55;;;;;;;7.75;3.40;;;;;;;0.60;53.96;94097.63;5004361;28;20084;-82
2024/03/20 00:26:21;;;;;;;4.93;2.55;;;;;;;0.62;54.30;94100.03;5004181;28;20053;-83
2024/03/20 00:28:46;;;;;;;6.43;2.75;;;;;;;0.51;54.14;94099.13;5004148;28;20062;-83
2024/03/20 00:31:12;;;;;;;10.00;3.38;;;;;;;0.51;54.34;94109.59;5003736;28;20037;-82
2024/03/20 00:33:37;;;;;;;5.90;2.83;;;;;;;0.49;54.36;94105.63;5003867;28;20332;-82
2024/03/20 00:36:04;;;;;;;7.03;3.38;;;;;;;0.48;54.46;94110.09;5003810;28;20317;-83
2024/03/20 00:38:29;;;;;;;5.65;2.80;;;;;;;0.49;54.14;94109.06;5003947;28;20026;-83
2024/03/20 00:40:55;;;;;;;4.82;2.72;;;;;;;0.46;54.61;94104.28;5003878;28;20264;-83
2024/03/20 00:43:20;;;;;;;6.15;3.05;;;;;;;0.46;54.75;94093.78;5003844;28;20033;-83
2024/03/20 00:45:46;;;;;;;6.78;3.10;;;;;;;0.39;54.63;94108.94;5004093;28;20215;-83
2024/03/20 00:48:11;;;;;;;5.45;3.20;;;;;;;0.39;54.96;94099.22;5003698;28;20084;-83
2024/03/20 00:50:36;;;;;;;5.65;2.88;;;;;;;0.47;55.17;94094.56;5003694;28;20034;-83
2024/03/20 00:53:02;;;;;;;5.53;2.45;;;;;;;0.35;54.74;94094.72;5003498;28;20057;-84
2024/03/20 00:55:27;;;;;;;9.25;2.97;;;;;;;0.32;54.97;94101.22;5003833;28;20260;-84
2024/03/20 00:57:52;;;;;;;5.75;2.80;;;;;;;0.39;54.72;94101.06;5003780;28;20048;-83
2024/03/20 01:00:18;;;;;;;7.40;3.17;;;;;;;0.36;54.61;94107.56;5006423;28;20018;-82
2024/03/20 01:02:44;;;;;;;5.70;2.97;;;;;;;0.42;55.01;94095.31;5007398;28;20023;-81
2024/03/20 01:05:39;;;;;;;7.13;2.42;;;;;;;0.29;55.08;94095.69;5007504;28;20022;-82
2024/03/20 01:08:05;;;;;;;6.40;2.90;;;;;;;0.27;55.37;94095.94;5007027;28;20097;-82
2024/03/20 01:10:30;;;;;;;6.63;2.95;;;;;;;0.23;55.35;94099.28;5007434;28;20033;-82
2024/03/20 01:12:56;;;;;;;6.30;3.03;;;;;;;0.15;55.29;94096.03;5006980;28;20026;-81
2024/03/20 01:15:21;;;;;;;4.97;2.40;;;;;;;0.21;55.38;94098.72;5007273;28;20321;-83
2024/03/20 01:17:47;;;;;;;6.32;3.13;;;;;;;0.13;55.72;94095.47;5007623;28;20137;-83
2024/03/20 01:20:12;;;;;;;8.13;3.00;;;;;;;0.08;55.69;94089.38;5007214;28;20033;-83
2024/03/20 01:22:38;;;;;;;6.15;2.75;;;;;;;0.10;55.75;94098.59;5007162;28;20026;-84
2024/03/20 01:25:04;;;;;;;6.28;2.97;;;;;;;0.12;55.35;94091.28;5007348;28;20018;-83
2024/03/20 01:27:30;;;;;;;7.13;2.83;;;;;;;0.12;55.33;94086.03;5007188;28;20026;-82
2024/03/20 01:29:56;;;;;;;4.25;2.05;;;;;;;0.14;55.79;94094.47;5007265;28;20141;-82
2024/03/20 01:32:21;;;;;;;6.78;3.05;;;;;;;0.16;55.44;94087.16;5007414;28;20026;-83
2024/03/20 01:34:47;;;;;;;5.85;2.83;;;;;;;0.17;55.54;94096.59;5007591;28;20034;-83
2024/03/20 01:37:12;;;;;;;6.93;3.33;;;;;;;0.15;55.84;94095.25;5007189;28;20026;-83
2024/03/20 01:39:38;;;;;;;5.47;2.33;;;;;;;0.13;55.71;94092.84;5007190;28;20347;-82
2024/03/20 01:42:04;;;;;;;6.88;2.58;;;;;;;0.17;56.03;94098.41;5007206;28;20064;-82
2024/03/20 01:44:29;;;;;;;7.65;2.42;;;;;;;0.13;55.73;94095.47;5007128;28;20225;-82
2024/03/20 01:46:54;;;;;;;8.43;3.45;;;;;;;0.12;55.99;94090.47;5007168;28;20037;-82
2024/03/20 01:49:20;;;;;;;7.82;2.95;;;;;;;0.10;56.29;94103.84;5007002;28;20027;-83
2024/03/20 01:51:45;;;;;;;6.03;2.95;;;;;;;0.11;56.31;94092.31;5007138;28;20034;-83
2024/03/20 01:54:12;;;;;;;6.43;2.90;;;;;;;0.14;56.10;94083.97;5006931;28;20054;-83
2024/03/20 01:56:38;;;;;;;9.52;3.95;;;;;;;0.12;56.50;94096.53;5005337;28;20033;-82
2024/03/20 01:59:04;;;;;;;6.22;3.05;;;;;;;0.10;56.35;94095.97;5006656;28;20025;-82
2024/03/20 02:02:02;;;;;;;9.45;3.05;;;;;;;0.16;56.10;94092.38;5006488;28;20318;-82
2024/03/20 02:04:27;;;;;;;6.07;3.10;;;;;;;0.18;56.41;94089.50;5006846;28;20236;-82
2024/03/20 02:06:52;;;;;;;6.55;2.80;;;;;;;0.10;56.60;94082.06;5006389;28;20097;-82
2024/03/20 02:09:18;;;;;;;7.25;3.88;;;;;;;0.07;56.40;94077.31;5006520;28;20023;-85
2024/03/20 02:11:43;;;;;;;10.18;3.50;;;;;;;0.06;56.86;94084.38;5006556;28;20045;-83
2024/03/20 02:14:08;;;;;;;9.20;3.47;;;;;;;0.03;56.95;94081.44;5006816;28;20253;-83
2024/03/20 02:16:34;;;;;;;6.43;3.20;;;;;;;0.03;57.20;94086.69;5006461;28;20022;-82
2024/03/20 02:18:59;;;;;;;5.60;2.85;;;;;;;0.07;57.36;94082.56;5006273;28;20050;-82
2024/03/20 02:21:25;;;;;;;10.27;3.15;;;;;;;0.08;57.77;94100.66;5005956;28;20033;-82
2024/03/20 02:23:51;;;;;;;6.88;3.30;;;;;;;0.08;57.08;94098.03;5006075;28;20033;-81
2024/03/20 02:26:17;;;;;;;6.25;3.30;;;;;;;-0.02;57.45;94108.34;5006620;28;20093;-81
2024/03/20 02:28:44;;;;;;;6.93;3.35;;;;;;;-0.01;57.58;94104.72;5006191;28;20041;-82
2024/03/20 02:31:11;;;;;;;6.60;3.10;;;;;;;0.07;57.62;94096.44;5006204;28;20037;-82
2024/03/20 02:33:37;;;;;;;6.60;2.90;;;;;;;0.05;57.80;94095.91;5005958;28;20257;-82
2024/03/20 02:36:04;;;;;;;6.95;3.00;;;;;;;0.13;58.14;94102.56;5004862;28;20061;-81
2024/03/20 02:38:38;;;;;;;7.20;3.55;;;;;;;0.10;57.71;94098.59;5005705;28;20026;-81
2024/03/20 02:41:04;;;;;;;8.38;3.85;;;;;;;0.10;57.91;94093.34;5005866;28;20042;-82
2024/03/20 02:43:30;;;;;;;7.50;3.65;;;;;;;0.07;57.95;94109.56;5005944;28;20229;-82
2024/03/20 02:45:55;;;;;;;8.38;3.88;;;;;;;0.10;58.24;94106.47;5005720;28;20093;-82
2024/03/20 02:48:21;;;;;;;6.40;3.38;;;;;;;0.12;58.26;94103.56;5004760;28;20041;-82
2024/03/20 02:50:47;;;;;;;6.63;3.13;;;;;;;0.17;58.33;94093.19;5005932;28;20025;-83
2024/03/20 02:53:12;;;;;;;5.30;3.35;;;;;;;0.24;58.35;94101.66;5005648;28;20046;-82
2024/03/20 02:55:40;;;;;;;6.40;3.42;;;;;;;0.21;58.05;94099.53;5005305;28;20241;-82
2024/03/20 02:58:06;;;;;;;8.70;3.53;;;;;;;0.18;57.97;94098.19;5005769;28;20025;-82
2024/03/20 03:00:32;;;;;;;9.10;4.03;;;;;;;0.14;58.05;94099.69;5005559;28;20026;-83
2024/03/20 03:02:58;;;;;;;6.28;3.40;;;;;;;0.19;58.44;94105.00;5020766;28;20289;-83
2024/03/20 03:05:25;;;;;;;7.30;3.38;;;;;;;0.19;58.62;94109.47;5005526;28;20022;-82
2024/03/20 03:07:52;;;;;;;7.30;3.22;;;;;;;0.17;58.67;94119.38;5005311;28;20026;-82
2024/03/20 03:10:25;;;;;;;6.82;3.25;;;;;;;0.17;58.28;94114.94;5005536;28;20093;-82
2024/03/20 03:12:51;;;;;;;8.93;3.83;;;;;;;0.15;58.97;94113.59;5005335;28;20038;-82
2024/03/20 03:15:18;;;;;;;7.78;3.92;;;;;;;0.16;58.82;94108.13;5005452;28;20252;-81
2024/03/20 03:17:51;;;;;;;6.72;3.97;;;;;;;0.17;58.76;94117.56;5005364;28;20125;-82
2024/03/20 03:20:19;;;;;;;7.93;4.25;;;;;;;0.23;58.99;94117.63;5005462;28;20101;-81
2024/03/20 03:22:45;;;;;;;7.20;3.53;;;;;;;0.18;59.00;94119.16;5004510;28;20026;-82
2024/03/20 03:25:12;;;;;;;9.90;4.38;;;;;;;0.21;59.19;94112.63;5005032;28;20031;-81
2024/03/20 03:27:38;;;;;;;7.68;4.03;;;;;;;0.15;59.45;94122.25;5004956;28;20032;-81
2024/03/20 03:30:07;;;;;;;10.15;4.47;;;;;;;0.13;59.40;94126.16;5020410;28;20038;-81
2024/03/20 03:32:33;;;;;;;7.82;3.95;;;;;;;0.10;59.59;94118.75;5003862;28;20022;-82
2024/03/20 03:34:58;;;;;;;6.97;3.60;;;;;;;0.11;59.98;94122.97;5004933;28;20049;-82
2024/03/20 03:37:23;;;;;;;8.18;3.70;;;;;;;0.05;60.04;94132.59;5003956;28;20065;-81
2024/03/20 03:39:52;;;;;;;7.10;3.35;;;;;;;0.02;59.70;94127.84;5004102;28;20033;-81
2024/03/20 03:42:19;;;;;;;8.07;3.47;;;;;;;-0.02;60.22;94137.19;5003937;28;20344;-81
2024/03/20 03:44:44;;;;;;;6.85;3.53;;;;;;;-0.07;60.65;94134.50;5004823;28;20022;-82
2024/03/20 03:47:10;;;;;;;8.18;2.97;;;;;;;-0.10;60.50;94140.22;5004854;28;20026;-82
2024/03/20 03:49:35;;;;;;;6.78;3.70;;;;;;;-0.08;60.82;94140.75;5004760;28;20110;-81
2024/03/20 03:52:01;;;;;;;10.00;3.70;;;;;;;-0.07;60.74;94140.53;5003868;28;20337;-84
2024/03/20 03:54:27;;;;;;;8.23;3.97;;;;;;;-0.02;60.30;94152.91;5005321;28;20046;-83
2024/03/20 03:56:52;;;;;;;7.70;3.53;;;;;;;-0.10;60.22;94145.44;5004883;28;20072;-82
2024/03/20 03:59:18;;;;;;;6.88;3.58;;;;;;;-0.12;60.47;94148.34;5005126;28;20022;-83
2024/03/20 04:01:45;;;;;;;9.95;3.95;;;;;;;-0.12;60.72;94150.97;5004443;28;20097;-81
2024/03/20 04:04:10;;;;;;;7.68;4.15;;;;;;;-0.16;60.69;94155.09;5004446;28;20093;-81
2024/03/20 04:06:36;;;;;;;11.60;4.00;;;;;;;-0.10;60.66;94158.56;5004679;28;20033;-80
2024/03/20 04:09:02;;;;;;;7.90;3.42;;;;;;;-0.12;60.94;94158.81;5004294;28;20244;-80
2024/03/20 04:11:29;;;;;;;7.07;3.45;;;;;;;-0.09;61.25;94150.47;5003950;28;20145;-82
2024/03/20 04:13:54;;;;;;;7.15;3.28;;;;;;;-0.12;60.58;94156.19;5003543;28;20034;-80
2024/03/20 04:16:19;;;;;;;7.57;3.80;;;;;;;-0.04;60.78;94160.22;5004024;28;20026;-81
2024/03/20 04:18:45;;;;;;;8.13;3.70;;;;;;;-0.09;60.20;94152.28;5003887;28;20049;-81
2024/03/20 04:21:11;;;;;;;6.85;3.25;;;;;;;-0.09;60.29;94158.31;5003619;28;20163;-81
2024/03/20 04:23:37;;;;;;;9.55;4.15;;;;;;;-0.02;60.25;94161.59;5003689;28;20026;-80
2024/03/20 04:26:02;;;;;;;8.30;4.25;;;;;;;-0.03;60.24;94153.97;5003577;28;20041;-81
2024/03/20 04:28:28;;;;;;;8.55;3.28;;;;;;;-0.02;59.96;94152.91;5003903;28;20114;-83
2024/03/20 04:30:53;;;;;;;8.20;3.75;;;;;;;0.04;60.48;94169.50;5003698;28;20030;-83
2024/03/20 04:33:18;;;;;;;7.70;3.47;;;;;;;0.07;59.59;94148.09;5004236;28;20022;-82
2024/03/20 04:35:44;;;;;;;9.57;4.30;;;;;;;0.07;60.02;94161.97;5004211;28;20030;-82
2024/03/20 04:38:09;;;;;;;7.25;3.67;;;;;;;0.09;59.40;94167.78;5003757;28;20064;-81
2024/03/20 04:40:35;;;;;;;8.77;4.05;;;;;;;0.12;59.37;94156.81;5003363;28;20033;-82
2024/03/20 04:43:00;;;;;;;8.30;3.40;;;;;;;0.17;59.41;94177.06;5003523;28;20038;-81
2024/03/20 04:45:26;;;;;;;9.57;3.90;;;;;;;0.19;59.00;94175.78;5003523;28;20263;-82
2024/03/20 04:47:52;;;;;;;7.55;4.25;;;;;;;0.24;58.97;94171.63;5003437;28;20328;-82
2024/03/20 04:50:17;;;;;;;6.53;3.30;;;;;;;0.27;58.84;94181.66;5003382;28;20054;-82
2024/03/20 04:52:42;;;;;;;7.35;4.30;;;;;;;0.25;58.66;94183.72;5003183;28;20035;-83
2024/03/20 04:55:08;;;;;;;7.53;3.88;;;;;;;0.25;59.32;94189.75;5003501;28;20052;-83
2024/03/20 04:57:34;;;;;;;8.77;4.28;;;;;;;0.36;58.81;94191.47;5003712;28;20105;-83
2024/03/20 04:59:59;;;;;;;8.95;3.35;;;;;;;0.37;59.00;94187.84;5002202;28;20030;-83
2024/03/20 05:02:25;;;;;;;10.15;4.22;;;;;;;0.37;58.36;94193.06;5003377;28;20046;-82
2024/03/20 05:04:50;;;;;;;7.97;3.85;;;;;;;0.39;58.28;94198.88;5003261;28;20026;-82
2024/03/20 05:07:16;;;;;;;9.88;4.15;;;;;;;0.40;58.20;94197.03;5003197;28;20348;-82
2024/03/20 05:09:42;;;;;;;8.68;4.28;;;;;;;0.48;58.42;94199.25;5003287;28;20034;-81
2024/03/20 05:12:07;;;;;;;8.23;4.25;;;;;;;0.54;58.41;94208.78;5003354;28;20363;-82
2024/03/20 05:14:32;;;;;;;11.90;4.03;;;;;;;0.60;58.17;94210.44;5003294;28;20030;-82
2024/03/20 05:17:00;;;;;;;10.27;3.85;;;;;;;0.58;57.72;94215.13;5002059;28;20026;-82
2024/03/20 05:19:28;;;;;;;8.23;3.83;;;;;;;0.67;58.24;94210.28;5003384;28;20288;-82
2024/03/20 05:21:54;;;;;;;7.50;4.00;;;;;;;0.75;58.38;94214.28;5003318;28;20280;-81
2024/03/20 05:24:19;;;;;;;8.65;3.63;;;;;;;0.76;57.99;94224.56;5003538;28;20027;-81
2024/03/20 05:26:45;;;;;;;8.98;4.15;;;;;;;0.80;57.19;94211.75;5003291;28;20022;-82
2024/03/20 05:29:11;;;;;;;7.43;3.80;;;;;;;0.85;57.40;94203.94;5003404;28;20097;-82
2024/03/20 05:31:37;;;;;;;9.52;4.22;;;;;;;0.91;57.36;94216.06;5003272;28;20018;-82
2024/03/20 05:34:02;;;;;;;7.95;3.60;;;;;;;0.99;57.52;94220.91;5003302;28;20069;-82
2024/03/20 05:36:28;;;;;;;9.90;4.60;;;;;;;1.04;56.59;94214.94;5002182;28;20026;-82
2024/03/20 05:38:53;;;;;;;7.65;3.92;;;;;;;1.03;57.08;94230.94;5003495;28;20052;-81
2024/03/20 05:41:18;;;;;;;8.35;3.65;;;;;;;0.99;56.99;94222.75;5003245;28;20236;-82
2024/03/20 05:43:46;;;;;;;6.32;3.50;;;;;;;0.97;56.90;94230.84;5003304;28;20202;-81
2024/03/20 05:46:12;;;;;;;11.00;4.35;;;;;;;1.00;57.06;94243.50;5005648;28;20305;-81
2024/03/20 05:48:38;;;;;;;8.43;4.18;;;;;;;1.06;57.06;94226.00;5007282;28;20026;-83
2024/03/20 05:51:03;;;;;;;10.98;4.65;;;;;;;1.14;56.99;94243.94;5006557;28;20042;-83
2024/03/20 05:53:29;;;;;;;11.63;3.97;;;;;;;1.19;56.82;94238.72;5005362;28;20109;-84
2024/03/20 05:55:54;;;;;;;8.18;4.40;;;;;;;1.28;56.85;94243.56;5006960;28;20022;-80
2024/03/20 05:58:20;;;;;;;11.13;4.60;;;;;;;1.32;57.13;94245.47;5006768;28;20325;-83
2024/03/20 06:00:46;;;;;;;7.50;4.05;;;;;;;1.40;56.34;94252.09;5006546;28;20320;-82
2024/03/20 06:03:11;;;;;;;19.65;4.25;;;;;;;1.49;56.87;94250.63;5006536;28;20042;-83
2024/03/20 06:05:37;;;;;;;11.05;4.05;;;;;;;1.50;56.81;94248.78;5006409;28;20029;-82
2024/03/20 06:08:02;;;;;;;10.32;4.93;;;;;;;1.54;56.44;94257.78;5006588;28;20113;-83
2024/03/20 06:10:28;;;;;;;9.48;3.95;;;;;;;1.57;56.09;94246.78;5006594;28;20045;-83
2024/03/20 06:12:53;;;;;;;9.85;4.88;;;;;;;1.63;57.37;94252.84;5006674;28;20102;-83
2024/03/20 06:15:19;;;;;;;11.93;4.43;;;;;;;1.68;56.40;94247.66;5006498;28;20305;-83
2024/03/20 06:17:44;;;;;;;9.93;4.63;;;;;;;1.77;56.48;94246.97;5006145;28;20030;-81
2024/03/20 06:20:10;;;;;;;10.82;4.85;;;;;;;1.78;56.34;94253.81;5006297;28;20022;-81
2024/03/20 06:22:36;;;;;;;9.52;4.85;;;;;;;1.76;56.61;94270.88;5005990;28;20078;-81
2024/03/20 06:25:08;;;;;;;10.30;4.85;;;;;;;1.78;57.09;94264.31;5006278;28;20026;-82
2024/03/20 06:27:34;;;;;;;9.13;4.63;;;;;;;1.87;57.00;94271.75;5006314;28;20022;-80
2024/03/20 06:30:03;;;;;;;14.23;5.53;;;;;;;1.91;56.54;94263.13;5004877;28;20057;-82
2024/03/20 06:32:31;;;;;;;11.07;5.53;;;;;;;2.00;56.83;94260.84;5004834;28;20018;-82
2024/03/20 06:34:56;;;;;;;12.20;4.57;;;;;;;2.15;57.33;94268.88;5006435;28;20026;-82
2024/03/20 06:37:22;;;;;;;7.93;4.18;;;;;;;2.13;56.28;94275.44;5006408;28;20041;-83
2024/03/20 06:39:48;;;;;;;10.40;4.65;;;;;;;2.16;57.08;94275.72;5005857;28;20030;-83
2024/03/20 06:42:20;;;;;;;10.80;5.05;;;;;;;2.21;56.62;94288.13;5006013;28;20022;-82
2024/03/20 06:44:46;;;;;;;16.75;6.18;;;;;;;2.34;56.71;94282.47;5006403;28;20093;-82
2024/03/20 06:47:12;;;;;;;13.60;4.85;;;;;;;2.39;57.02;94284.31;5005474;28;20033;-81
2024/03/20 06:49:37;;;;;;;8.93;4.60;;;;;;;2.30;56.46;94299.78;5005857;28;20030;-82
2024/03/20 06:52:04;;;;;;;11.32;5.38;;;;;;;2.20;57.05;94310.22;5005434;28;20345;-81
2024/03/20 06:54:29;;;;;;;13.65;5.13;;;;;;;2.29;57.40;94307.91;5005561;28;20111;-82
2024/03/20 06:57:04;;;;;;;12.52;5.35;;;;;;;2.30;57.13;94301.59;5004789;28;20026;-85
2024/03/20 06:59:30;;;;;;;10.95;5.03;;;;;;;2.35;57.38;94317.44;5006413;28;20030;-85
2024/03/20 07:01:57;;;;;;;13.18;5.30;;;;;;;2.32;57.90;94312.66;5005927;28;20056;-84
2024/03/20 07:04:24;;;;;;;9.55;4.78;;;;;;;2.39;57.08;94315.91;5005874;28;20030;-82
2024/03/20 07:06:49;;;;;;;9.27;4.95;;;;;;;2.35;57.02;94310.34;5005771;28;20045;-83
2024/03/20 07:09:15;;;;;;;13.23;6.10;;;;;;;2.38;57.35;94311.66;5020974;28;20038;-85
2024/03/20 07:11:40;;;;;;;10.20;4.78;;;;;;;2.40;57.77;94315.66;5006423;28;20022;-85
2024/03/20 07:14:05;;;;;;;9.85;5.28;;;;;;;2.46;56.96;94320.94;5006058;28;20333;-87
2024/03/20 07:16:31;;;;;;;11.55;5.07;;;;;;;2.50;57.38;94309.66;5006339;28;20052;-87
2024/03/20 07:18:56;;;;;;;12.05;5.95;;;;;;;2.65;58.10;94300.31;5005954;28;20145;-87
2024/03/20 07:21:22;;;;;;;9.15;5.00;;;;;;;2.71;56.77;94317.75;5005856;28;20026;-88
2024/03/20 07:23:47;;;;;;;10.65;4.95;;;;;;;2.71;56.96;94308.00;5005627;28;20027;-88
2024/03/20 07:26:13;;;;;;;13.55;4.90;;;;;;;2.71;57.42;94308.00;5005716;28;20033;-88
2024/03/20 07:28:40;;;;;;;13.63;5.22;;;;;;;2.73;57.93;94313.03;5005773;28;20148;-85
2024/03/20 07:31:05;;;;;;;10.32;5.22;;;;;;;2.89;59.27;94306.81;5005602;28;20065;-85
2024/03/20 07:33:31;;;;;;;10.32;4.57;;;;;;;3.15;59.28;94317.47;5005432;28;20018;-85
2024/03/20 07:35:58;;;;;;;12.75;5.15;;;;;;;3.38;58.37;94316.31;5005323;28;20018;-86
2024/03/20 07:38:23;;;;;;;11.90;4.97;;;;;;;3.39;56.72;94305.47;5005363;28;20026;-81
2024/03/20 07:40:52;;;;;;;11.18;5.22;;;;;;;3.50;57.33;94308.97;5005286;28;20025;-90
2024/03/20 07:43:18;;;;;;;12.57;5.28;;;;;;;3.47;57.10;94308.69;5005918;28;20085;-86
2024/03/20 07:45:43;;;;;;;14.50;5.25;;;;;;;3.41;56.88;94305.22;5006619;28;20022;-84
2024/03/20 07:48:08;;;;;;;17.55;4.85;;;;;;;3.55;55.31;94310.84;5006154;28;20260;-83
2024/03/20 07:50:34;;;;;;;11.25;4.90;;;;;;;3.39;55.04;94317.88;5004288;28;20042;-83
2024/03/20 07:53:00;;;;;;;11.82;5.68;;;;;;;3.27;55.64;94304.91;5019574;28;20273;-81
2024/03/20 07:55:25;;;;;;;12.60;4.95;;;;;;;3.30;56.78;94314.94;5004541;28;20194;-82
2024/03/20 07:57:51;;;;;;;15.68;5.43;;;;;;;3.29;56.00;94315.97;5004555;28;20292;-82
2024/03/20 08:00:16;;;;;;;17.83;5.40;;;;;;;3.27;56.86;94306.75;5004013;28;20057;-82
2024/03/20 08:02:43;;;;;;;14.80;5.70;;;;;;;3.34;57.73;94316.00;5002667;28;20037;-81
2024/03/20 08:05:12;;;;;;;16.98;5.63;;;;;;;3.33;56.06;94314.41;5019168;28;20198;-82
2024/03/20 08:07:39;;;;;;;8.65;4.65;;;;;;;3.25;56.30;94307.00;5018943;28;20141;-82
2024/03/20 08:10:05;;;;;;;12.20;5.60;;;;;;;3.35;56.90;94319.44;5003922;28;20030;-81
2024/03/20 08:12:32;;;;;;;15.38;4.70;;;;;;;3.40;56.29;94307.09;5004003;28;20324;-82
2024/03/20 08:14:57;;;;;;;10.45;4.60;;;;;;;3.48;56.47;94328.72;5002743;28;20018;-82
2024/03/20 08:17:23;;;;;;;14.50;5.13;;;;;;;3.51;56.33;94322.94;5002827;28;20356;-81
2024/03/20 08:19:48;;;;;;;14.55;5.20;;;;;;;3.51;56.18;94301.84;5004181;28;20057;-82
2024/03/20 08:22:13;;;;;;;10.55;4.80;;;;;;;3.64;55.96;94311.91;5003785;28;20092;-82
2024/03/20 08:24:42;;;;;;;12.48;5.53;;;;;;;3.67;55.74;94313.25;5004076;28;20358;-83
2024/03/20 08:27:07;;;;;;;11.20;4.97;;;;;;;3.62;54.88;94314.00;5003830;28;20038;-82
2024/03/20 08:29:33;;;;;;;12.80;5.32;;;;;;;3.64;55.79;94292.66;5003616;28;20080;-82
2024/03/20 08:31:58;;;;;;;19.08;5.53;;;;;;;3.70;55.44;94300.34;5003693;28;20443;-82
2024/03/20 08:34:24;;;;;;;12.15;5.35;;;;;;;3.74;55.23;94293.50;5003833;28;20021;-82
2024/03/20 08:36:50;;;;;;;12.60;5.88;;;;;;;3.79;55.15;94300.63;5003602;28;20198;-82
2024/03/20 08:39:15;;;;;;;10.80;5.40;;;;;;;3.92;54.66;94294.06;5003601;28;20041;-81
2024/03/20 08:41:41;;;;;;;8.73;4.80;;;;;;;3.98;54.57;94293.81;5003373;28;20026;-81
2024/03/20 08:44:08;;;;;;;12.30;5.80;;;;;;;4.01;55.70;94308.34;5003486;28;20034;-82
2024/03/20 08:46:36;;;;;;;9.05;4.53;;;;;;;4.10;54.84;94311.25;5003431;28;20057;-81
2024/03/20 08:49:01;;;;;;;10.75;5.28;;;;;;;4.15;54.35;94293.59;5003433;28;20022;-82
2024/03/20 08:51:27;;;;;;;8.23;4.45;;;;;;;4.28;53.15;94305.50;5003349;28;20025;-82
2024/03/20 08:53:52;;;;;;;10.15;5.13;;;;;;;4.39;54.79;94293.09;5003544;28;20050;-85
2024/03/20 08:56:18;;;;;;;18.75;5.53;;;;;;;4.50;54.32;94297.31;5003733;28;20025;-83
2024/03/20 08:58:44;;;;;;;18.85;5.47;;;;;;;4.53;52.78;94299.44;5003579;28;20015;-82
2024/03/20 09:01:09;;;;;;;13.15;4.47;;;;;;;4.56;53.24;94306.84;5003567;28;20042;-83
2024/03/20 09:03:34;;;;;;;13.23;4.47;;;;;;;4.55;53.56;94305.22;5003694;28;20018;-83
2024/03/20 09:06:00;;;;;;;15.07;5.13;;;;;;;4.70;53.57;94307.09;5003534;28;20049;-84
2024/03/20 09:08:25;;;;;;;10.10;5.10;;;;;;;4.74;52.81;94294.94;5003686;28;20042;-81
2024/03/20 09:10:51;;;;;;;8.65;4.45;;;;;;;4.82;52.38;94296.25;5003824;28;20355;-82
2024/03/20 09:13:16;;;;;;;9.48;4.82;;;;;;;4.77;52.77;94290.97;5003591;28;20061;-80
2024/03/20 09:15:42;;;;;;;10.38;5.15;;;;;;;4.85;53.27;94292.31;5003434;28;20041;-82
2024/03/20 09:18:07;;;;;;;9.57;5.00;;;;;;;4.95;52.83;94292.28;5003383;28;20240;-82
2024/03/20 09:21:24;;;;;;;11.73;4.80;;;;;;;5.03;51.30;94287.25;5004966;28;20026;-85
2024/03/20 09:23:50;;;;;;;16.13;5.07;;;;;;;5.08;50.88;94309.44;5006329;28;20389;-85
2024/03/20 09:26:15;;;;;;;9.95;4.63;;;;;;;5.14;51.09;94292.50;5006058;28;20081;-85
2024/03/20 09:28:41;;;;;;;13.20;5.68;;;;;;;5.14;50.96;94295.16;5007103;28;20033;-85
2024/03/20 09:31:06;;;;;;;8.40;4.70;;;;;;;5.19;51.76;94295.94;5007117;28;20057;-84
2024/03/20 09:33:32;;;;;;;8.63;3.95;;;;;;;5.36;50.82;94290.31;5007464;28;20030;-84
2024/03/20 09:35:57;;;;;;;8.30;4.60;;;;;;;5.47;50.22;94287.66;5007241;28;20041;-84
2024/03/20 09:38:23;;;;;;;9.70;4.65;;;;;;;5.61;50.09;94288.66;5008203;28;20053;-85
2024/03/20 09:40:49;;;;;;;7.50;4.18;;;;;;;5.66;48.80;94279.91;5007920;28;20033;-84
2024/03/20 09:43:14;;;;;;;10.25;4.63;;;;;;;5.67;49.06;94284.13;5007775;28;20022;-84
2024/03/20 09:45:40;;;;;;;15.15;4.32;;;;;;;5.72;47.98;94287.56;5007392;28;20029;-84
2024/03/20 09:48:09;;;;;;;11.45;4.10;;;;;;;5.71;48.69;94272.75;5007448;28;20186;-84
2024/03/20 09:50:38;;;;;;;9.05;4.00;;;;;;;5.83;47.89;94273.19;5007716;28;20026;-85
2024/03/20 09:53:05;;;;;;;8.88;4.22;;;;;;;5.90;47.31;94272.13;5006956;28;20046;-84
2024/03/20 09:55:34;;;;;;;9.02;4.55;;;;;;;6.00;47.30;94270.25;5006930;28;20085;-84
2024/03/20 09:57:59;;;;;;;7.57;3.70;;;;;;;6.02;47.00;94259.38;5022212;28;20396;-84
2024/03/20 10:00:25;;;;;;;7.78;3.78;;;;;;;5.95;45.21;94261.53;5007135;28;20080;-85
2024/03/20 10:02:52;;;;;;;6.95;3.70;;;;;;;6.10;46.15;94261.44;5006816;28;20034;-85
2024/03/20 10:05:17;;;;;;;12.30;3.85;;;;;;;6.17;47.38;94261.94;5006791;28;20030;-84
2024/03/20 10:07:44;;;;;;;8.30;3.50;;;;;;;6.20;45.35;94255.28;5006756;28;20113;-85
2024/03/20 10:10:13;;;;;;;7.82;3.65;;;;;;;6.28;44.65;94277.75;5006563;28;20026;-84
2024/03/20 10:12:39;;;;;;;8.73;3.72;;;;;;;6.22;44.75;94266.41;5006615;28;20057;-84
2024/03/20 10:15:09;;;;;;;6.93;3.88;;;;;;;6.29;45.41;94276.66;5006935;28;20022;-85
2024/03/20 10:17:36;;;;;;;9.02;3.72;;;;;;;6.39;45.98;94266.81;5006309;28;20038;-83
2024/03/20 10:20:14;;;;;;;6.57;3.30;;;;;;;6.52;46.06;94252.13;5005912;28;20022;-82
2024/03/20 10:22:40;;;;;;;7.78;3.33;;;;;;;6.63;44.98;94237.75;5006230;28;20022;-81
2024/03/20 10:25:10;;;;;;;7.28;3.38;;;;;;;6.86;45.94;94240.72;5006097;28;20030;-84
2024/03/20 10:27:40;;;;;;;5.10;3.10;;;;;;;6.83;45.03;94244.72;5006272;28;20120;-86
2024/03/20 10:30:15;;;;;;;6.28;2.95;;;;;;;6.94;44.23;94248.06;5006038;28;20030;-82
2024/03/20 10:32:46;;;;;;;7.63;3.03;;;;;;;7.02;43.50;94236.84;5006150;28;20037;-83
2024/03/20 10:35:14;;;;;;;6.68;2.67;;;;;;;7.19;43.47;94241.72;5006199;28;20019;-82
2024/03/20 10:37:43;;;;;;;5.97;2.88;;;;;;;7.35;42.09;94241.53;5005956;28;20033;-82
2024/03/20 10:40:16;;;;;;;7.45;3.35;;;;;;;7.43;41.82;94243.56;5004932;28;20030;-87
2024/03/20 10:42:46;;;;;;;6.75;3.00;;;;;;;7.48;42.08;94248.03;5006317;28;20076;-86
2024/03/20 10:45:13;;;;;;;12.40;2.80;;;;;;;7.38;41.82;94231.13;5005229;28;20252;-85
2024/03/20 10:47:42;;;;;;;7.45;3.28;;;;;;;7.35;43.77;94231.72;5006139;28;20040;-80
2024/03/20 10:50:20;;;;;;;9.52;3.33;;;;;;;7.42;41.41;94221.53;5005539;28;20093;-83
2024/03/20 10:52:48;;;;;;;7.47;2.70;;;;;;;7.49;41.89;94225.72;5005677;28;20068;-82
2024/03/20 10:55:16;;;;;;;7.65;2.97;;;;;;;7.62;41.21;94235.63;5005663;28;20109;-84
2024/03/20 10:57:42;;;;;;;6.28;3.00;;;;;;;7.71;41.52;94227.81;5004577;28;20053;-84
2024/03/20 11:00:19;;;;;;;6.65;3.10;;;;;;;7.76;40.43;94228.56;5005310;28;20336;-83
2024/03/20 11:02:45;;;;;;;5.63;2.80;;;;;;;7.70;40.36;94220.97;5020810;28;20232;-87
2024/03/20 11:05:37;;;;;;;8.63;2.75;;;;;;;7.84;40.60;94238.53;5005426;28;20030;-85
2024/03/20 11:08:07;;;;;;;5.85;2.90;;;;;;;7.82;40.84;94224.75;5005411;28;20081;-83
2024/03/20 11:10:33;;;;;;;6.43;2.90;;;;;;;7.87;40.90;94218.59;5005467;28;20038;-86
2024/03/20 11:12:59;;;;;;;8.60;2.80;;;;;;;7.97;41.92;94210.47;5020934;28;20049;-85
2024/03/20 11:15:27;;;;;;;6.95;3.22;;;;;;;8.02;40.82;94215.72;5004059;28;20068;-84
2024/03/20 11:17:53;;;;;;;7.53;2.60;;;;;;;8.06;38.97;94218.59;5005313;28;20026;-84
2024/03/20 11:20:34;;;;;;;7.75;3.08;;;;;;;8.11;39.94;94212.41;5002922;28;20030;-84
2024/03/20 11:23:03;;;;;;;5.30;2.83;;;;;;;8.13;40.18;94224.31;5003784;28;20432;-84
2024/03/20 11:25:36;;;;;;;5.78;3.13;;;;;;;8.11;39.38;94215.84;5019637;28;20045;-84
2024/03/20 11:28:02;;;;;;;5.88;2.97;;;;;;;8.18;40.32;94211.00;5002726;28;20038;-83
2024/03/20 11:30:28;;;;;;;6.50;2.83;;;;;;;8.29;40.21;94198.34;5003920;28;20057;-83
2024/03/20 11:32:53;;;;;;;5.72;2.90;;;;;;;8.37;40.27;94207.50;5004757;28;20057;-84
2024/03/20 11:35:19;;;;;;;8.25;2.88;;;;;;;8.48;40.65;94214.25;5004504;28;20022;-85
2024/03/20 11:37:45;;;;;;;7.05;3.47;;;;;;;8.63;39.83;94206.03;5003391;28;20023;-84